sensor_id;sensor_type;location;lat;lon;timestamp;P1;durP1;ratioP1;P2;durP2;ratioP2
31045;SDS011;17711;54.018;9.300;2023-06-04T00:00:33;14.02;;;13.52;;
31045;SDS011;17711;54.018;9.300;2023-06-04T00:03:01;15.82;;;15.15;;
31045;SDS011;17711;54.018;9.300;2023-06-04T00:05:31;15.13;;;14.52;;
31045;SDS011;17711;54.018;9.300;2023-06-04T00:08:00;15.35;;;14.73;;
31045;SDS011;17711;54.018;9.300;2023-06-04T00:10:30;14.18;;;13.68;;
31045;SDS011;17711;54.018;9.300;2023-06-04T00:13:00;14.40;;;13.88;;
31045;SDS011;17711;54.018;9.300;2023-06-04T00:15:28;14.63;;;14.02;;
31045;SDS011;17711;54.018;9.300;2023-06-04T00:17:57;15.55;;;14.95;;
31045;SDS011;17711;54.018;9.300;2023-06-04T00:20:26;14.02;;;13.52;;
31045;SDS011;17711;54.018;9.300;2023-06-04T00:22:56;15.35;;;14.75;;
31045;SDS011;17711;54.018;9.300;2023-06-04T00:25:25;14.02;;;13.52;;
31045;SDS011;17711;54.018;9.300;2023-06-04T00:27:56;14.10;;;13.60;;
31045;SDS011;17711;54.018;9.300;2023-06-04T00:30:25;13.88;;;13.38;;
31045;SDS011;17711;54.018;9.300;2023-06-04T00:32:53;13.75;;;13.25;;
31045;SDS011;17711;54.018;9.300;2023-06-04T00:35:22;13.55;;;13.05;;
31045;SDS011;17711;54.018;9.300;2023-06-04T00:37:50;13.57;;;13.07;;
31045;SDS011;17711;54.018;9.300;2023-06-04T00:40:20;13.20;;;12.70;;
31045;SDS011;17711;54.018;9.300;2023-06-04T00:42:49;13.18;;;12.68;;
31045;SDS011;17711;54.018;9.300;2023-06-04T00:45:18;13.75;;;13.25;;
31045;SDS011;17711;54.018;9.300;2023-06-04T00:47:52;13.10;;;12.60;;
31045;SDS011;17711;54.018;9.300;2023-06-04T00:50:22;13.38;;;12.88;;
31045;SDS011;17711;54.018;9.300;2023-06-04T00:52:51;13.90;;;13.40;;
31045;SDS011;17711;54.018;9.300;2023-06-04T00:55:21;13.57;;;13.07;;
31045;SDS011;17711;54.018;9.300;2023-06-04T00:57:50;13.23;;;12.73;;
31045;SDS011;17711;54.018;9.300;2023-06-04T01:00:18;14.90;;;14.30;;
31045;SDS011;17711;54.018;9.300;2023-06-04T01:02:47;13.77;;;13.27;;
31045;SDS011;17711;54.018;9.300;2023-06-04T01:05:21;13.60;;;13.10;;
31045;SDS011;17711;54.018;9.300;2023-06-04T01:08:00;14.15;;;13.63;;
31045;SDS011;17711;54.018;9.300;2023-06-04T01:10:31;13.55;;;13.05;;
31045;SDS011;17711;54.018;9.300;2023-06-04T01:13:01;13.98;;;13.45;;
31045;SDS011;17711;54.018;9.300;2023-06-04T01:15:29;13.00;;;12.50;;
31045;SDS011;17711;54.018;9.300;2023-06-04T01:17:58;13.68;;;13.18;;
31045;SDS011;17711;54.018;9.300;2023-06-04T01:20:32;13.25;;;12.75;;
31045;SDS011;17711;54.018;9.300;2023-06-04T01:23:12;15.85;;;15.15;;
31045;SDS011;17711;54.018;9.300;2023-06-04T01:25:47;12.98;;;12.48;;
31045;SDS011;17711;54.018;9.300;2023-06-04T01:28:17;16.23;;;15.52;;
31045;SDS011;17711;54.018;9.300;2023-06-04T01:30:47;13.45;;;12.95;;
31045;SDS011;17711;54.018;9.300;2023-06-04T01:33:18;15.30;;;14.68;;
31045;SDS011;17711;54.018;9.300;2023-06-04T01:35:47;12.80;;;12.30;;
31045;SDS011;17711;54.018;9.300;2023-06-04T01:38:16;19.80;;;18.88;;
31045;SDS011;17711;54.018;9.300;2023-06-04T01:40:46;12.82;;;12.32;;
31045;SDS011;17711;54.018;9.300;2023-06-04T01:43:15;16.35;;;15.65;;
31045;SDS011;17711;54.018;9.300;2023-06-04T01:45:44;12.20;;;11.77;;
31045;SDS011;17711;54.018;9.300;2023-06-04T01:48:13;16.02;;;15.32;;
31045;SDS011;17711;54.018;9.300;2023-06-04T01:50:42;12.52;;;12.02;;
31045;SDS011;17711;54.018;9.300;2023-06-04T01:53:10;16.00;;;15.30;;
31045;SDS011;17711;54.018;9.300;2023-06-04T01:55:39;13.27;;;12.77;;
31045;SDS011;17711;54.018;9.300;2023-06-04T01:58:09;15.77;;;15.10;;
31045;SDS011;17711;54.018;9.300;2023-06-04T02:00:38;12.23;;;11.82;;
31045;SDS011;17711;54.018;9.300;2023-06-04T02:03:07;14.95;;;14.35;;
31045;SDS011;17711;54.018;9.300;2023-06-04T02:05:37;11.98;;;11.57;;
31045;SDS011;17711;54.018;9.300;2023-06-04T02:08:05;17.02;;;16.33;;
31045;SDS011;17711;54.018;9.300;2023-06-04T02:10:35;11.82;;;11.43;;
31045;SDS011;17711;54.018;9.300;2023-06-04T02:13:06;14.45;;;13.85;;
31045;SDS011;17711;54.018;9.300;2023-06-04T02:15:36;11.93;;;11.52;;
31045;SDS011;17711;54.018;9.300;2023-06-04T02:18:12;14.85;;;14.25;;
31045;SDS011;17711;54.018;9.300;2023-06-04T02:20:45;12.38;;;11.88;;
31045;SDS011;17711;54.018;9.300;2023-06-04T02:23:15;15.63;;;14.98;;
31045;SDS011;17711;54.018;9.300;2023-06-04T02:25:45;12.02;;;11.63;;
31045;SDS011;17711;54.018;9.300;2023-06-04T02:28:14;15.80;;;15.13;;
31045;SDS011;17711;54.018;9.300;2023-06-04T02:30:45;11.63;;;11.23;;
31045;SDS011;17711;54.018;9.300;2023-06-04T02:33:14;14.93;;;14.32;;
31045;SDS011;17711;54.018;9.300;2023-06-04T02:35:43;12.52;;;12.02;;
31045;SDS011;17711;54.018;9.300;2023-06-04T02:38:12;15.10;;;14.50;;
31045;SDS011;17711;54.018;9.300;2023-06-04T02:40:42;12.50;;;12.00;;
31045;SDS011;17711;54.018;9.300;2023-06-04T02:43:11;15.70;;;15.02;;
31045;SDS011;17711;54.018;9.300;2023-06-04T02:45:39;12.00;;;11.52;;
31045;SDS011;17711;54.018;9.300;2023-06-04T02:48:09;14.77;;;14.18;;
31045;SDS011;17711;54.018;9.300;2023-06-04T02:50:38;11.85;;;11.43;;
31045;SDS011;17711;54.018;9.300;2023-06-04T02:53:08;16.00;;;15.32;;
31045;SDS011;17711;54.018;9.300;2023-06-04T02:55:37;11.77;;;11.38;;
31045;SDS011;17711;54.018;9.300;2023-06-04T02:58:08;17.48;;;16.77;;
31045;SDS011;17711;54.018;9.300;2023-06-04T03:04:19;14.32;;;13.75;;
31045;SDS011;17711;54.018;9.300;2023-06-04T03:06:48;13.48;;;12.98;;
31045;SDS011;17711;54.018;9.300;2023-06-04T03:09:24;12.75;;;12.25;;
31045;SDS011;17711;54.018;9.300;2023-06-04T03:11:53;13.82;;;13.32;;
31045;SDS011;17711;54.018;9.300;2023-06-04T03:14:22;12.98;;;12.48;;
31045;SDS011;17711;54.018;9.300;2023-06-04T03:16:59;13.63;;;13.13;;
31045;SDS011;17711;54.018;9.300;2023-06-04T03:19:36;13.40;;;12.90;;
31045;SDS011;17711;54.018;9.300;2023-06-04T03:22:07;16.08;;;15.48;;
31045;SDS011;17711;54.018;9.300;2023-06-04T03:24:37;13.25;;;12.75;;
31045;SDS011;17711;54.018;9.300;2023-06-04T03:27:07;15.20;;;14.60;;
31045;SDS011;17711;54.018;9.300;2023-06-04T03:29:37;12.60;;;12.10;;
31045;SDS011;17711;54.018;9.300;2023-06-04T03:32:06;15.88;;;15.25;;
31045;SDS011;17711;54.018;9.300;2023-06-04T03:34:38;13.18;;;12.68;;
31045;SDS011;17711;54.018;9.300;2023-06-04T03:37:07;15.00;;;14.40;;
31045;SDS011;17711;54.018;9.300;2023-06-04T03:39:36;13.07;;;12.57;;
31045;SDS011;17711;54.018;9.300;2023-06-04T03:42:05;15.68;;;15.07;;
31045;SDS011;17711;54.018;9.300;2023-06-04T03:44:34;13.30;;;12.80;;
31045;SDS011;17711;54.018;9.300;2023-06-04T03:47:02;14.77;;;14.20;;
31045;SDS011;17711;54.018;9.300;2023-06-04T03:49:32;12.98;;;12.48;;
31045;SDS011;17711;54.018;9.300;2023-06-04T03:52:04;13.65;;;13.13;;
31045;SDS011;17711;54.018;9.300;2023-06-04T03:54:32;13.88;;;13.38;;
31045;SDS011;17711;54.018;9.300;2023-06-04T03:57:01;14.32;;;13.77;;
31045;SDS011;17711;54.018;9.300;2023-06-04T03:59:30;13.18;;;12.68;;
31045;SDS011;17711;54.018;9.300;2023-06-04T04:01:59;13.55;;;13.05;;
31045;SDS011;17711;54.018;9.300;2023-06-04T04:04:28;14.02;;;13.52;;
31045;SDS011;17711;54.018;9.300;2023-06-04T04:06:56;14.90;;;14.30;;
31045;SDS011;17711;54.018;9.300;2023-06-04T04:09:27;12.98;;;12.48;;
31045;SDS011;17711;54.018;9.300;2023-06-04T04:11:56;13.60;;;13.10;;
31045;SDS011;17711;54.018;9.300;2023-06-04T04:14:28;13.90;;;13.40;;
31045;SDS011;17711;54.018;9.300;2023-06-04T04:16:56;13.77;;;13.27;;
31045;SDS011;17711;54.018;9.300;2023-06-04T04:19:25;15.27;;;14.68;;
31045;SDS011;17711;54.018;9.300;2023-06-04T04:21:56;14.40;;;13.90;;
31045;SDS011;17711;54.018;9.300;2023-06-04T04:24:25;14.80;;;14.20;;
31045;SDS011;17711;54.018;9.300;2023-06-04T04:26:56;14.77;;;14.18;;
31045;SDS011;17711;54.018;9.300;2023-06-04T04:29:25;15.35;;;14.75;;
31045;SDS011;17711;54.018;9.300;2023-06-04T04:31:54;15.73;;;15.13;;
31045;SDS011;17711;54.018;9.300;2023-06-04T04:34:25;15.95;;;15.35;;
31045;SDS011;17711;54.018;9.300;2023-06-04T04:36:54;15.10;;;14.50;;
31045;SDS011;17711;54.018;9.300;2023-06-04T04:39:23;15.18;;;14.57;;
31045;SDS011;17711;54.018;9.300;2023-06-04T04:41:53;14.93;;;14.32;;
31045;SDS011;17711;54.018;9.300;2023-06-04T04:44:22;14.85;;;14.25;;
31045;SDS011;17711;54.018;9.300;2023-06-04T04:46:51;13.40;;;12.90;;
31045;SDS011;17711;54.018;9.300;2023-06-04T04:49:19;13.80;;;13.30;;
31045;SDS011;17711;54.018;9.300;2023-06-04T04:51:48;13.23;;;12.73;;
31045;SDS011;17711;54.018;9.300;2023-06-04T04:54:19;14.10;;;13.60;;
31045;SDS011;17711;54.018;9.300;2023-06-04T04:56:47;14.27;;;13.77;;
31045;SDS011;17711;54.018;9.300;2023-06-04T04:59:39;14.10;;;13.60;;
31045;SDS011;17711;54.018;9.300;2023-06-04T05:02:07;17.02;;;16.33;;
31045;SDS011;17711;54.018;9.300;2023-06-04T05:04:36;13.88;;;13.38;;
31045;SDS011;17711;54.018;9.300;2023-06-04T05:07:05;17.00;;;16.30;;
31045;SDS011;17711;54.018;9.300;2023-06-04T05:09:33;14.50;;;14.00;;
31045;SDS011;17711;54.018;9.300;2023-06-04T05:12:02;17.13;;;16.40;;
31045;SDS011;17711;54.018;9.300;2023-06-04T05:14:32;14.98;;;14.38;;
31045;SDS011;17711;54.018;9.300;2023-06-04T05:17:03;15.93;;;15.30;;
31045;SDS011;17711;54.018;9.300;2023-06-04T05:19:33;14.90;;;14.30;;
31045;SDS011;17711;54.018;9.300;2023-06-04T05:22:01;16.15;;;15.48;;
31045;SDS011;17711;54.018;9.300;2023-06-04T05:24:31;15.20;;;14.60;;
31045;SDS011;17711;54.018;9.300;2023-06-04T05:27:00;14.93;;;14.32;;
31045;SDS011;17711;54.018;9.300;2023-06-04T05:29:30;15.10;;;14.50;;
31045;SDS011;17711;54.018;9.300;2023-06-04T05:31:58;15.13;;;14.52;;
31045;SDS011;17711;54.018;9.300;2023-06-04T05:34:29;16.00;;;15.40;;
31045;SDS011;17711;54.018;9.300;2023-06-04T05:36:57;15.10;;;14.50;;
31045;SDS011;17711;54.018;9.300;2023-06-04T05:39:26;15.80;;;15.20;;
31045;SDS011;17711;54.018;9.300;2023-06-04T05:41:54;15.50;;;14.90;;
31045;SDS011;17711;54.018;9.300;2023-06-04T05:44:24;16.63;;;15.93;;
31045;SDS011;17711;54.018;9.300;2023-06-04T05:46:53;16.30;;;15.70;;
31045;SDS011;17711;54.018;9.300;2023-06-04T05:49:21;16.40;;;15.77;;
31045;SDS011;17711;54.018;9.300;2023-06-04T05:51:53;16.67;;;16.08;;
31045;SDS011;17711;54.018;9.300;2023-06-04T05:54:21;17.75;;;17.05;;
31045;SDS011;17711;54.018;9.300;2023-06-04T05:56:50;17.55;;;16.85;;
31045;SDS011;17711;54.018;9.300;2023-06-04T05:59:18;18.45;;;17.75;;
31045;SDS011;17711;54.018;9.300;2023-06-04T06:01:47;19.17;;;18.42;;
31045;SDS011;17711;54.018;9.300;2023-06-04T06:04:16;21.90;;;20.95;;
31045;SDS011;17711;54.018;9.300;2023-06-04T06:06:45;18.73;;;18.02;;
31045;SDS011;17711;54.018;9.300;2023-06-04T06:09:16;23.38;;;22.38;;
31045;SDS011;17711;54.018;9.300;2023-06-04T06:11:46;20.60;;;19.80;;
31045;SDS011;17711;54.018;9.300;2023-06-04T06:14:14;24.20;;;23.17;;
31045;SDS011;17711;54.018;9.300;2023-06-04T06:16:43;20.77;;;19.98;;
31045;SDS011;17711;54.018;9.300;2023-06-04T06:19:12;26.33;;;25.17;;
31045;SDS011;17711;54.018;9.300;2023-06-04T06:21:41;21.17;;;20.38;;
31045;SDS011;17711;54.018;9.300;2023-06-04T06:24:09;25.60;;;24.50;;
31045;SDS011;17711;54.018;9.300;2023-06-04T06:26:39;30.85;;;29.65;;
31045;SDS011;17711;54.018;9.300;2023-06-04T06:29:09;26.60;;;25.42;;
31045;SDS011;17711;54.018;9.300;2023-06-04T06:31:37;22.45;;;21.55;;
31045;SDS011;17711;54.018;9.300;2023-06-04T06:34:07;27.65;;;26.42;;
31045;SDS011;17711;54.018;9.300;2023-06-04T06:36:35;647.40;;;613.97;;
31045;SDS011;17711;54.018;9.300;2023-06-04T06:39:04;28.55;;;27.27;;
31045;SDS011;17711;54.018;9.300;2023-06-04T06:41:33;23.83;;;22.88;;
31045;SDS011;17711;54.018;9.300;2023-06-04T06:44:05;25.83;;;24.70;;
31045;SDS011;17711;54.018;9.300;2023-06-04T06:46:34;24.08;;;23.08;;
31045;SDS011;17711;54.018;9.300;2023-06-04T06:49:02;25.75;;;24.65;;
31045;SDS011;17711;54.018;9.300;2023-06-04T06:51:31;24.08;;;23.08;;
31045;SDS011;17711;54.018;9.300;2023-06-04T06:53:59;23.50;;;22.60;;
31045;SDS011;17711;54.018;9.300;2023-06-04T06:56:28;25.00;;;24.00;;
31045;SDS011;17711;54.018;9.300;2023-06-04T06:58:57;25.45;;;24.45;;
31045;SDS011;17711;54.018;9.300;2023-06-04T07:01:27;25.60;;;24.60;;
31045;SDS011;17711;54.018;9.300;2023-06-04T07:03:56;26.80;;;25.70;;
31045;SDS011;17711;54.018;9.300;2023-06-04T07:06:24;25.45;;;24.45;;
31045;SDS011;17711;54.018;9.300;2023-06-04T07:08:53;26.48;;;25.38;;
31045;SDS011;17711;54.018;9.300;2023-06-04T07:11:21;25.33;;;24.33;;
31045;SDS011;17711;54.018;9.300;2023-06-04T07:13:50;25.67;;;24.67;;
31045;SDS011;17711;54.018;9.300;2023-06-04T07:16:20;26.27;;;25.25;;
31045;SDS011;17711;54.018;9.300;2023-06-04T07:18:52;26.77;;;25.67;;
31045;SDS011;17711;54.018;9.300;2023-06-04T07:21:25;29.27;;;28.08;;
31045;SDS011;17711;54.018;9.300;2023-06-04T07:23:57;29.30;;;28.10;;
31045;SDS011;17711;54.018;9.300;2023-06-04T07:26:41;28.10;;;27.00;;
31045;SDS011;17711;54.018;9.300;2023-06-04T07:29:10;33.10;;;31.60;;
31045;SDS011;17711;54.018;9.300;2023-06-04T07:31:40;47.03;;;45.03;;
31045;SDS011;17711;54.018;9.300;2023-06-04T07:34:13;35.50;;;33.90;;
31045;SDS011;17711;54.018;9.300;2023-06-04T07:36:43;32.70;;;31.40;;
31045;SDS011;17711;54.018;9.300;2023-06-04T07:39:12;35.88;;;34.28;;
31045;SDS011;17711;54.018;9.300;2023-06-04T07:41:43;32.63;;;31.33;;
31045;SDS011;17711;54.018;9.300;2023-06-04T07:44:14;36.58;;;34.95;;
31045;SDS011;17711;54.018;9.300;2023-06-04T07:46:43;31.83;;;30.52;;
31045;SDS011;17711;54.018;9.300;2023-06-04T07:49:17;36.42;;;34.83;;
31045;SDS011;17711;54.018;9.300;2023-06-04T07:51:48;34.33;;;32.92;;
31045;SDS011;17711;54.018;9.300;2023-06-04T07:54:32;33.88;;;32.47;;
31045;SDS011;17711;54.018;9.300;2023-06-04T07:57:03;39.65;;;37.88;;
31045;SDS011;17711;54.018;9.300;2023-06-04T07:59:35;36.60;;;35.10;;
31045;SDS011;17711;54.018;9.300;2023-06-04T08:02:16;40.17;;;38.38;;
31045;SDS011;17711;54.018;9.300;2023-06-04T08:04:55;37.63;;;36.13;;
31045;SDS011;17711;54.018;9.300;2023-06-04T08:09:56;41.70;;;40.00;;
31045;SDS011;17711;54.018;9.300;2023-06-04T08:12:25;43.28;;;41.47;;
31045;SDS011;17711;54.018;9.300;2023-06-04T08:14:53;45.75;;;43.85;;
31045;SDS011;17711;54.018;9.300;2023-06-04T08:17:24;63.80;;;61.17;;
31045;SDS011;17711;54.018;9.300;2023-06-04T08:19:59;52.25;;;50.05;;
31045;SDS011;17711;54.018;9.300;2023-06-04T08:22:34;1240.15;;;725.25;;
31045;SDS011;17711;54.018;9.300;2023-06-04T08:25:05;48.60;;;46.38;;
31045;SDS011;17711;54.018;9.300;2023-06-04T08:27:37;47.47;;;45.50;;
31045;SDS011;17711;54.018;9.300;2023-06-04T08:30:09;49.97;;;47.63;;
31045;SDS011;17711;54.018;9.300;2023-06-04T08:32:40;1999.90;;;999.90;;
31045;SDS011;17711;54.018;9.300;2023-06-04T08:35:12;1999.90;;;999.90;;
31045;SDS011;17711;54.018;9.300;2023-06-04T08:37:43;1999.90;;;999.90;;
31045;SDS011;17711;54.018;9.300;2023-06-04T08:40:14;1999.90;;;999.90;;
31045;SDS011;17711;54.018;9.300;2023-06-04T08:42:49;1999.90;;;999.90;;
31045;SDS011;17711;54.018;9.300;2023-06-04T08:45:22;1999.90;;;999.90;;
31045;SDS011;17711;54.018;9.300;2023-06-04T08:47:52;1999.90;;;999.90;;
31045;SDS011;17711;54.018;9.300;2023-06-04T08:50:24;1999.90;;;999.90;;
31045;SDS011;17711;54.018;9.300;2023-06-04T08:52:53;1999.90;;;999.90;;
31045;SDS011;17711;54.018;9.300;2023-06-04T08:55:24;1999.90;;;999.90;;
31045;SDS011;17711;54.018;9.300;2023-06-04T08:57:54;1999.90;;;999.90;;
31045;SDS011;17711;54.018;9.300;2023-06-04T09:00:24;1999.90;;;999.90;;
31045;SDS011;17711;54.018;9.300;2023-06-04T09:02:52;1999.90;;;999.90;;
31045;SDS011;17711;54.018;9.300;2023-06-04T09:05:22;1999.90;;;999.90;;
31045;SDS011;17711;54.018;9.300;2023-06-04T09:07:53;1999.90;;;999.90;;
31045;SDS011;17711;54.018;9.300;2023-06-04T09:10:27;1999.90;;;999.90;;
31045;SDS011;17711;54.018;9.300;2023-06-04T09:12:59;1999.90;;;999.90;;
31045;SDS011;17711;54.018;9.300;2023-06-04T09:15:30;1999.90;;;999.90;;
31045;SDS011;17711;54.018;9.300;2023-06-04T09:18:00;1999.90;;;999.90;;
31045;SDS011;17711;54.018;9.300;2023-06-04T09:20:30;1999.90;;;999.90;;
31045;SDS011;17711;54.018;9.300;2023-06-04T09:22:59;1999.90;;;999.90;;
31045;SDS011;17711;54.018;9.300;2023-06-04T09:25:28;1999.90;;;999.90;;
31045;SDS011;17711;54.018;9.300;2023-06-04T09:27:57;1999.90;;;999.90;;
31045;SDS011;17711;54.018;9.300;2023-06-04T09:30:34;1999.90;;;999.90;;
31045;SDS011;17711;54.018;9.300;2023-06-04T09:33:06;1999.90;;;999.90;;
31045;SDS011;17711;54.018;9.300;2023-06-04T09:35:37;1999.90;;;999.90;;
31045;SDS011;17711;54.018;9.300;2023-06-04T09:38:05;1999.90;;;999.90;;
31045;SDS011;17711;54.018;9.300;2023-06-04T09:40:35;1999.90;;;999.90;;
31045;SDS011;17711;54.018;9.300;2023-06-04T09:43:04;1999.90;;;999.90;;
31045;SDS011;17711;54.018;9.300;2023-06-04T09:45:33;1999.90;;;999.90;;
31045;SDS011;17711;54.018;9.300;2023-06-04T09:48:03;1999.90;;;999.90;;
31045;SDS011;17711;54.018;9.300;2023-06-04T09:50:37;1999.90;;;999.90;;
31045;SDS011;17711;54.018;9.300;2023-06-04T09:53:15;1999.90;;;999.90;;
31045;SDS011;17711;54.018;9.300;2023-06-04T09:55:44;1999.90;;;999.90;;
31045;SDS011;17711;54.018;9.300;2023-06-04T09:58:24;1999.90;;;999.90;;
31045;SDS011;17711;54.018;9.300;2023-06-04T10:00:54;1999.90;;;999.90;;
31045;SDS011;17711;54.018;9.300;2023-06-04T10:03:25;1999.90;;;999.90;;
31045;SDS011;17711;54.018;9.300;2023-06-04T10:06:02;1999.90;;;999.90;;
31045;SDS011;17711;54.018;9.300;2023-06-04T10:08:32;1999.90;;;999.90;;
31045;SDS011;17711;54.018;9.300;2023-06-04T10:11:02;1999.90;;;999.90;;
31045;SDS011;17711;54.018;9.300;2023-06-04T10:13:35;1999.90;;;999.90;;
31045;SDS011;17711;54.018;9.300;2023-06-04T10:16:08;1999.90;;;999.90;;
31045;SDS011;17711;54.018;9.300;2023-06-04T10:18:56;1999.90;;;999.90;;
31045;SDS011;17711;54.018;9.300;2023-06-04T10:21:28;1999.90;;;999.90;;
31045;SDS011;17711;54.018;9.300;2023-06-04T10:24:01;1999.90;;;999.90;;
31045;SDS011;17711;54.018;9.300;2023-06-04T10:26:32;1999.90;;;999.90;;
31045;SDS011;17711;54.018;9.300;2023-06-04T10:29:01;1999.90;;;999.90;;
31045;SDS011;17711;54.018;9.300;2023-06-04T10:31:31;1999.90;;;999.90;;
31045;SDS011;17711;54.018;9.300;2023-06-04T10:34:01;1999.90;;;999.90;;
31045;SDS011;17711;54.018;9.300;2023-06-04T10:36:31;1999.90;;;999.90;;
31045;SDS011;17711;54.018;9.300;2023-06-04T10:39:09;1999.90;;;999.90;;
31045;SDS011;17711;54.018;9.300;2023-06-04T10:41:38;1999.90;;;999.90;;
31045;SDS011;17711;54.018;9.300;2023-06-04T10:44:07;1999.90;;;999.90;;
31045;SDS011;17711;54.018;9.300;2023-06-04T10:46:39;1999.90;;;999.90;;
31045;SDS011;17711;54.018;9.300;2023-06-04T10:49:10;1999.90;;;999.90;;
31045;SDS011;17711;54.018;9.300;2023-06-04T10:51:40;1999.90;;;999.90;;
31045;SDS011;17711;54.018;9.300;2023-06-04T10:54:10;1999.90;;;999.90;;
31045;SDS011;17711;54.018;9.300;2023-06-04T10:56:51;1999.90;;;999.90;;
31045;SDS011;17711;54.018;9.300;2023-06-04T10:59:21;1999.90;;;999.90;;
31045;SDS011;17711;54.018;9.300;2023-06-04T11:01:51;1999.90;;;999.90;;
31045;SDS011;17711;54.018;9.300;2023-06-04T11:04:22;1999.90;;;999.90;;
31045;SDS011;17711;54.018;9.300;2023-06-04T11:07:03;1999.90;;;999.90;;
31045;SDS011;17711;54.018;9.300;2023-06-04T11:09:35;1999.90;;;999.90;;
31045;SDS011;17711;54.018;9.300;2023-06-04T11:12:05;1999.90;;;999.90;;
31045;SDS011;17711;54.018;9.300;2023-06-04T11:14:34;1999.90;;;999.90;;
31045;SDS011;17711;54.018;9.300;2023-06-04T11:17:09;1999.90;;;999.90;;
31045;SDS011;17711;54.018;9.300;2023-06-04T11:19:38;1999.90;;;999.90;;
31045;SDS011;17711;54.018;9.300;2023-06-04T11:22:11;1999.90;;;999.90;;
31045;SDS011;17711;54.018;9.300;2023-06-04T11:24:40;1999.90;;;999.90;;
31045;SDS011;17711;54.018;9.300;2023-06-04T11:27:08;1999.90;;;999.90;;
31045;SDS011;17711;54.018;9.300;2023-06-04T11:29:49;1999.90;;;999.90;;
31045;SDS011;17711;54.018;9.300;2023-06-04T11:32:22;1999.90;;;999.90;;
31045;SDS011;17711;54.018;9.300;2023-06-04T11:35:01;1999.90;;;999.90;;
31045;SDS011;17711;54.018;9.300;2023-06-04T11:37:32;1999.90;;;999.90;;
31045;SDS011;17711;54.018;9.300;2023-06-04T11:40:02;1999.90;;;999.90;;
31045;SDS011;17711;54.018;9.300;2023-06-04T11:42:33;1999.90;;;999.90;;
31045;SDS011;17711;54.018;9.300;2023-06-04T11:45:03;1999.90;;;999.90;;
31045;SDS011;17711;54.018;9.300;2023-06-04T11:47:32;1999.90;;;999.90;;
31045;SDS011;17711;54.018;9.300;2023-06-04T11:50:01;1999.90;;;999.90;;
31045;SDS011;17711;54.018;9.300;2023-06-04T11:52:29;1999.90;;;999.90;;
31045;SDS011;17711;54.018;9.300;2023-06-04T11:55:00;1999.90;;;999.90;;
31045;SDS011;17711;54.018;9.300;2023-06-04T11:57:29;1999.90;;;999.90;;
31045;SDS011;17711;54.018;9.300;2023-06-04T11:59:59;1999.90;;;999.90;;
31045;SDS011;17711;54.018;9.300;2023-06-04T12:02:30;1999.90;;;999.90;;
31045;SDS011;17711;54.018;9.300;2023-06-04T12:05:09;1999.90;;;999.90;;
31045;SDS011;17711;54.018;9.300;2023-06-04T12:07:40;1999.90;;;999.90;;
31045;SDS011;17711;54.018;9.300;2023-06-04T12:10:10;1999.90;;;999.90;;
31045;SDS011;17711;54.018;9.300;2023-06-04T12:12:39;1999.90;;;999.90;;
31045;SDS011;17711;54.018;9.300;2023-06-04T12:15:08;1999.90;;;999.90;;
31045;SDS011;17711;54.018;9.300;2023-06-04T12:17:37;1999.90;;;999.90;;
31045;SDS011;17711;54.018;9.300;2023-06-04T12:20:18;1999.90;;;999.90;;
31045;SDS011;17711;54.018;9.300;2023-06-04T12:25:24;1999.90;;;999.90;;
31045;SDS011;17711;54.018;9.300;2023-06-04T12:27:54;1999.90;;;999.90;;
31045;SDS011;17711;54.018;9.300;2023-06-04T12:30:23;1999.90;;;999.90;;
31045;SDS011;17711;54.018;9.300;2023-06-04T12:33:02;1999.90;;;999.90;;
31045;SDS011;17711;54.018;9.300;2023-06-04T12:35:31;1999.90;;;999.90;;
31045;SDS011;17711;54.018;9.300;2023-06-04T12:38:04;1999.90;;;999.90;;
31045;SDS011;17711;54.018;9.300;2023-06-04T12:40:36;1999.90;;;999.90;;
31045;SDS011;17711;54.018;9.300;2023-06-04T12:43:05;1999.90;;;999.90;;
31045;SDS011;17711;54.018;9.300;2023-06-04T12:45:34;1999.90;;;999.90;;
31045;SDS011;17711;54.018;9.300;2023-06-04T12:48:03;1999.90;;;999.90;;
31045;SDS011;17711;54.018;9.300;2023-06-04T12:50:32;1999.90;;;999.90;;
31045;SDS011;17711;54.018;9.300;2023-06-04T12:53:00;1999.90;;;999.90;;
31045;SDS011;17711;54.018;9.300;2023-06-04T12:55:30;1999.90;;;999.90;;
31045;SDS011;17711;54.018;9.300;2023-06-04T12:57:59;1999.90;;;999.90;;
31045;SDS011;17711;54.018;9.300;2023-06-04T13:00:28;1999.90;;;999.90;;
31045;SDS011;17711;54.018;9.300;2023-06-04T13:02:57;1999.90;;;999.90;;
31045;SDS011;17711;54.018;9.300;2023-06-04T13:05:26;1999.90;;;999.90;;
31045;SDS011;17711;54.018;9.300;2023-06-04T13:07:55;1999.90;;;999.90;;
31045;SDS011;17711;54.018;9.300;2023-06-04T13:10:24;1999.90;;;999.90;;
31045;SDS011;17711;54.018;9.300;2023-06-04T13:12:55;1999.90;;;999.90;;
31045;SDS011;17711;54.018;9.300;2023-06-04T13:15:25;1999.90;;;999.90;;
31045;SDS011;17711;54.018;9.300;2023-06-04T13:17:54;1999.90;;;999.90;;
31045;SDS011;17711;54.018;9.300;2023-06-04T13:20:24;1999.90;;;999.90;;
31045;SDS011;17711;54.018;9.300;2023-06-04T13:22:54;1999.90;;;999.90;;
31045;SDS011;17711;54.018;9.300;2023-06-04T13:25:25;1999.90;;;999.90;;
31045;SDS011;17711;54.018;9.300;2023-06-04T13:27:58;1999.90;;;999.90;;
31045;SDS011;17711;54.018;9.300;2023-06-04T13:30:32;1999.90;;;999.90;;
31045;SDS011;17711;54.018;9.300;2023-06-04T13:33:04;1999.90;;;999.90;;
31045;SDS011;17711;54.018;9.300;2023-06-04T13:35:36;1999.90;;;999.90;;
31045;SDS011;17711;54.018;9.300;2023-06-04T13:38:04;1999.90;;;999.90;;
31045;SDS011;17711;54.018;9.300;2023-06-04T13:40:33;1999.90;;;999.90;;
31045;SDS011;17711;54.018;9.300;2023-06-04T13:43:04;1999.90;;;999.90;;
31045;SDS011;17711;54.018;9.300;2023-06-04T13:45:33;1999.90;;;999.90;;
31045;SDS011;17711;54.018;9.300;2023-06-04T13:48:02;1999.90;;;999.90;;
31045;SDS011;17711;54.018;9.300;2023-06-04T13:50:33;1999.90;;;999.90;;
31045;SDS011;17711;54.018;9.300;2023-06-04T13:53:02;1999.90;;;999.90;;
31045;SDS011;17711;54.018;9.300;2023-06-04T13:55:31;1999.90;;;999.90;;
31045;SDS011;17711;54.018;9.300;2023-06-04T13:58:05;1999.90;;;999.90;;
31045;SDS011;17711;54.018;9.300;2023-06-04T14:00:33;1999.90;;;999.90;;
31045;SDS011;17711;54.018;9.300;2023-06-04T14:03:02;1999.90;;;999.90;;
31045;SDS011;17711;54.018;9.300;2023-06-04T14:05:31;1999.90;;;999.90;;
31045;SDS011;17711;54.018;9.300;2023-06-04T14:08:00;1999.90;;;999.90;;
31045;SDS011;17711;54.018;9.300;2023-06-04T14:10:29;1999.90;;;999.90;;
31045;SDS011;17711;54.018;9.300;2023-06-04T14:12:58;1999.90;;;999.90;;
31045;SDS011;17711;54.018;9.300;2023-06-04T14:15:29;1999.90;;;999.90;;
31045;SDS011;17711;54.018;9.300;2023-06-04T14:17:59;1999.90;;;999.90;;
31045;SDS011;17711;54.018;9.300;2023-06-04T14:20:27;1999.90;;;999.90;;
31045;SDS011;17711;54.018;9.300;2023-06-04T14:22:56;1999.90;;;999.90;;
31045;SDS011;17711;54.018;9.300;2023-06-04T14:25:26;1999.90;;;999.90;;
31045;SDS011;17711;54.018;9.300;2023-06-04T14:27:55;1999.90;;;999.90;;
31045;SDS011;17711;54.018;9.300;2023-06-04T14:30:23;1999.90;;;999.90;;
31045;SDS011;17711;54.018;9.300;2023-06-04T14:32:53;1999.90;;;999.90;;